HELX Airport Information

Runway Information
Runway 02 Length 9843 ft width 148 ft
Elevation 294 ft Threshold ft Heading 23
Runway 20 Length 9843 ft Width 148 ft
Elevation 272 ft Threshold ft Heading 203
Airport Frequencies
Type APP Name RADAR Frequency 124.3 MHZ
Type GND Name GND Frequency 121.9 MHZ
Type RDO Name RDO Frequency 585.9 MHZ
Type TWR Name TWR Frequency 119.9 MHZ
Airport Navaids
Type NDB Name Luxor Frequency 364 KHZ
Type VOR-DME Name Luxor Frequency 114400 KHZ
Airport Weather Information & NOTAM
ADDS - METARS form results

(2044 UTC 10 August 2022)
Data provider http://aviationweather.gov/metar/data/
 
METAR text: HELX 102000Z 31005KT CAVOK 34/14 Q1005 NOSIG
Conditions at: HELX (LUXOR (CIV/MIL) , EG) observed 2000 UTC 10 August 2022
Temperature: 34.0°C (93°F)
Dewpoint: 14.0°C (57°F) [RH = 30%]
Pressure (altimeter): 29.68 inches Hg (1005.0 mb)
Winds: from the NW (310 degrees) at 6 MPH (5 knots; 2.6 m/s)
Visibility: 6 or more miles (10+ km)
Ceiling: ceiling and visibility are OK
Clouds: unknown
Weather: no significant weather observed at this time

Forecast for: HELX (LUXOR (CIV/MIL) , EG)
Text: TAF HELX 101700Z 1018/1124 32013KT 7000 NSC
Forecast period: 1800 UTC 10 August 2022 to 0000 UTC 12 August 2022
Forecast type: FROM: standard forecast or significant change
Winds: from the NW (320 degrees) at 15 MPH (13 knots; 6.7 m/s)
Visibility: 4 miles (7 km)
Ceiling: unknown
Clouds: missing
Weather: no significant weather forecast for this period